createdAt,value
2022-12-15T00:03:28.604Z,22.5
2022-12-15T00:05:29.347Z,30.8
2022-12-15T00:07:33.457Z,29.6
2022-12-15T00:11:36.236Z,58.1
2022-12-15T00:18:47.760Z,31.8
2022-12-15T00:20:49.172Z,33.7
2022-12-15T00:34:45.508Z,23.7
2022-12-15T00:40:52.383Z,39.1
2022-12-15T00:42:53.751Z,24.2
2022-12-15T00:44:57.915Z,19.6
2022-12-15T00:46:59.263Z,34.6
2022-12-15T00:49:00.601Z,35
2022-12-15T00:51:04.664Z,24.3
2022-12-15T00:53:06.042Z,42.4
2022-12-15T00:55:07.425Z,28
2022-12-15T00:57:17.699Z,30.1
2022-12-15T01:05:25.879Z,26.6
2022-12-15T01:07:27.252Z,29.2
2022-12-15T01:09:31.342Z,27.2
2022-12-15T01:11:32.741Z,37.6
2022-12-15T01:13:34.307Z,28.1
2022-12-15T01:15:38.204Z,31.2
2022-12-15T01:38:02.356Z,27.3
2022-12-15T02:07:43.854Z,51.6
2022-12-15T02:11:46.610Z,33.5
2022-12-15T02:13:50.738Z,28.3
2022-12-15T02:15:52.216Z,23
2022-12-15T02:19:57.518Z,28.7
2022-12-15T02:21:58.887Z,30.5
2022-12-15T02:26:04.358Z,32.3
2022-12-15T02:28:05.717Z,25.1
2022-12-15T02:30:07.107Z,48.9
2022-12-15T02:32:11.214Z,30.3
2022-12-15T02:34:12.585Z,51.2
2022-12-15T02:36:13.937Z,36.9
2022-12-15T02:38:18.026Z,34.9
2022-12-15T02:40:19.413Z,32.7
2022-12-15T02:42:20.811Z,35.2
2022-12-15T02:44:24.867Z,35.7
2022-12-15T02:48:27.662Z,36
2022-12-15T02:54:34.557Z,31.1
2022-12-15T02:56:38.662Z,33.7
2022-12-15T03:00:41.528Z,37.2
2022-12-15T03:09:39.434Z,29
2022-12-15T03:11:40.854Z,36.9
2022-12-15T03:13:42.231Z,39.1
2022-12-15T03:15:46.304Z,26.8
2022-12-15T03:17:47.700Z,41.3
2022-12-15T03:19:49.768Z,18.7
2022-12-15T03:21:53.182Z,33
2022-12-15T03:23:54.566Z,33.2
2022-12-15T03:25:55.965Z,29.9
2022-12-15T03:28:00.096Z,33.1
2022-12-15T03:30:01.459Z,40.1
2022-12-15T03:32:02.970Z,37.9
2022-12-15T03:37:06.699Z,40.7
2022-12-15T03:39:08.095Z,40.3
2022-12-15T03:41:09.507Z,28.4
2022-12-15T03:43:13.578Z,32.5
2022-12-15T03:45:14.992Z,34
2022-12-15T03:47:16.382Z,37.2
2022-12-15T03:49:20.470Z,30.5
2022-12-15T03:51:21.880Z,36.1
2022-12-15T03:53:23.248Z,27.1
2022-12-15T03:57:28.775Z,33.4
2022-12-15T03:59:30.185Z,30.1
2022-12-15T04:01:34.458Z,36.9
2022-12-15T04:03:36.029Z,47.7
2022-12-15T04:05:37.023Z,30.5
2022-12-15T04:07:41.139Z,39.3
2022-12-15T04:09:42.557Z,27.7
2022-12-15T04:11:43.951Z,29.5
2022-12-15T04:22:43.261Z,33.2
2022-12-15T04:24:44.645Z,34.8
2022-12-15T04:26:48.729Z,26.1
2022-12-15T04:28:50.109Z,40.7
2022-12-15T04:30:51.576Z,22.1
2022-12-15T04:35:56.235Z,28
2022-12-15T04:51:14.420Z,43.8
2022-12-15T04:53:15.820Z,36.4
2022-12-15T04:55:17.200Z,39
2022-12-15T04:57:21.277Z,31.3
2022-12-15T04:59:22.665Z,27.3
2022-12-15T05:01:24.130Z,34.3
2022-12-15T05:05:29.561Z,34.9
2022-12-15T05:07:30.863Z,27.3
2022-12-15T05:09:34.949Z,41.8
2022-12-15T05:13:37.702Z,26.9
2022-12-15T05:15:41.815Z,43.4
2022-12-15T05:19:44.574Z,36.2
2022-12-15T05:21:48.635Z,31.5
2022-12-15T05:23:50.010Z,37.7
2022-12-15T05:25:51.401Z,32.9
2022-12-15T05:27:55.510Z,39
2022-12-15T05:29:56.872Z,31.5
2022-12-15T05:31:58.280Z,34.7
2022-12-15T05:34:05.520Z,31.1
2022-12-15T05:36:03.742Z,30.8
2022-12-15T05:38:05.145Z,29.8
2022-12-15T05:40:09.208Z,44.5
2022-12-15T05:42:10.601Z,38
2022-12-15T05:44:12.000Z,42.7
2022-12-15T05:46:16.117Z,32.7
2022-12-15T05:50:18.897Z,41.2
2022-12-15T05:52:23.019Z,34
2022-12-15T05:56:25.809Z,42.7
2022-12-15T06:11:30.721Z,34.1
2022-12-15T06:13:32.537Z,31.5
2022-12-15T06:15:33.557Z,47.3
2022-12-15T06:21:40.452Z,25.1
2022-12-15T06:23:44.581Z,19.6
2022-12-15T06:29:51.493Z,41.5
2022-12-15T06:34:00.984Z,41.3
2022-12-15T06:35:58.461Z,35.4
2022-12-15T06:37:59.871Z,29.9
2022-12-15T06:40:01.269Z,37.4
2022-12-15T06:42:05.379Z,37.7
2022-12-15T06:44:06.790Z,30.8
2022-12-15T06:46:08.306Z,23.8
2022-12-15T06:48:12.301Z,27.3
2022-12-15T06:50:13.720Z,33.5
2022-12-15T06:52:15.148Z,40.9
2022-12-15T06:58:22.088Z,33.4
2022-12-15T07:07:20.080Z,29.8
2022-12-15T07:09:21.504Z,24.4
2022-12-15T07:11:22.901Z,29.3
2022-12-15T07:13:26.992Z,26.9
2022-12-15T07:15:28.392Z,56
2022-12-15T07:17:29.784Z,31.8
2022-12-15T07:19:33.863Z,46.5
2022-12-15T07:21:35.260Z,34.1
2022-12-15T07:23:53.515Z,30.6
2022-12-15T07:25:40.773Z,69.3
2022-12-15T07:27:42.161Z,43
2022-12-15T07:29:43.569Z,42.8
2022-12-15T07:35:50.453Z,27.3
2022-12-15T07:44:49.975Z,43.9
2022-12-15T07:46:49.769Z,24.9
2022-12-15T07:48:51.265Z,39.5
2022-12-15T07:50:55.205Z,21.8
2022-12-15T07:57:02.048Z,28.8
2022-12-15T08:01:04.818Z,33
2022-12-15T08:08:16.284Z,35.7
2022-12-15T08:10:17.637Z,40
2022-12-15T08:12:21.696Z,23
2022-12-15T08:14:23.531Z,29.4
2022-12-15T08:16:24.527Z,26.4
2022-12-15T08:21:32.900Z,28
2022-12-15T08:23:34.716Z,41.6
2022-12-15T08:25:35.550Z,37
2022-12-15T08:27:39.616Z,35.1
2022-12-15T08:29:51.857Z,36
2022-12-15T08:31:42.360Z,36.7
2022-12-15T08:33:46.376Z,38
2022-12-15T08:35:56.644Z,53
2022-12-15T08:37:49.076Z,34.3
2022-12-15T08:39:53.121Z,37.1
2022-12-15T08:41:54.462Z,34.3
2022-12-15T08:43:55.863Z,27.7
2022-12-15T08:45:59.919Z,36.4
2022-12-15T08:48:01.214Z,34.9
2022-12-15T08:50:02.570Z,61.1
2022-12-15T08:52:06.602Z,36.3
2022-12-15T08:54:07.988Z,43
2022-12-15T08:56:09.221Z,41.3
2022-12-15T09:01:20.605Z,38.1
2022-12-15T09:03:15.542Z,38.7
2022-12-15T09:07:20.892Z,45.9
2022-12-15T09:25:41.372Z,56.8
2022-12-15T09:27:42.818Z,61.9
2022-12-15T09:29:44.191Z,45.2
2022-12-15T09:31:48.308Z,52
2022-12-15T09:33:49.718Z,50.1
2022-12-15T09:35:51.128Z,57.4
2022-12-15T09:37:55.247Z,62.3
2022-12-15T09:39:56.682Z,43.8
2022-12-15T09:44:02.219Z,69
2022-12-15T09:46:03.676Z,58.8
2022-12-15T09:48:05.093Z,47.1
2022-12-15T09:50:09.238Z,60.1
2022-12-15T09:54:12.104Z,58.8
2022-12-15T09:56:16.263Z,53.4
2022-12-15T09:58:17.701Z,60.8
2022-12-15T10:00:19.165Z,63.7
2022-12-15T10:02:23.362Z,60.7
2022-12-15T10:04:24.890Z,74.6
2022-12-15T10:06:32.761Z,72.5
2022-12-15T10:08:30.400Z,83.3
2022-12-15T10:10:31.855Z,79.1
2022-12-15T10:12:33.314Z,76.1
2022-12-15T10:18:40.518Z,96.6
2022-12-15T10:20:44.628Z,98.5
2022-12-15T10:26:51.890Z,117.5
2022-12-15T10:28:53.351Z,94.6
2022-12-15T10:30:54.856Z,100.8
2022-12-15T10:55:14.519Z,84
2022-12-15T10:57:16.123Z,105.8
2022-12-15T11:01:22.030Z,69.5
2022-12-15T11:03:23.792Z,110.4
2022-12-15T11:07:29.438Z,111.2
2022-12-15T11:09:31.058Z,86.8
2022-12-15T11:11:32.671Z,91.1
2022-12-15T11:13:37.499Z,104.2
2022-12-15T11:17:40.203Z,87.8
2022-12-15T11:19:44.519Z,86.6
2022-12-15T11:21:46.168Z,86.3
2022-12-15T11:25:52.087Z,98.1
2022-12-15T11:27:53.755Z,88.4
2022-12-15T11:29:55.404Z,85.4
2022-12-15T11:32:06.459Z,91.2
2022-12-15T11:34:01.368Z,89.3
2022-12-15T11:41:15.961Z,71.6
2022-12-15T11:45:19.265Z,74.8
2022-12-15T11:47:23.644Z,71.5
2022-12-15T11:49:25.314Z,64.7
2022-12-15T11:51:27.044Z,61.5
2022-12-15T11:53:31.735Z,61.9
2022-12-15T11:55:39.252Z,70.8
2022-12-15T11:57:34.664Z,61.2
2022-12-15T11:59:39.016Z,67.8
2022-12-15T12:03:42.356Z,50.5
2022-12-15T12:05:46.677Z,52.7
2022-12-15T12:07:49.127Z,35.2
2022-12-15T12:09:49.975Z,49.9
2022-12-15T12:13:55.941Z,49.7
2022-12-15T12:15:57.615Z,41.9
2022-12-15T12:21:01.126Z,61.9
2022-12-15T12:27:08.757Z,39.1
2022-12-15T12:29:10.405Z,38.1
2022-12-15T12:31:12.050Z,31.8
2022-12-15T12:36:24.975Z,55
2022-12-15T12:38:26.596Z,46.5
2022-12-15T12:40:28.230Z,35.8
2022-12-15T12:42:32.585Z,38.6
2022-12-15T12:44:34.236Z,32.9
2022-12-15T12:46:35.979Z,29.8
2022-12-15T12:48:40.244Z,28.2
2022-12-15T12:50:41.922Z,25
2022-12-15T12:52:43.592Z,26.4
2022-12-15T12:54:47.944Z,16.6
2022-12-15T12:56:50.624Z,32
2022-12-15T12:58:51.300Z,29.3
2022-12-15T13:00:56.912Z,20.4
2022-12-15T13:02:57.350Z,18.8
2022-12-15T13:04:58.964Z,14.1
2022-12-15T13:07:03.320Z,37.3
2022-12-15T13:09:04.996Z,21.5
2022-12-15T13:11:06.658Z,17.7
2022-12-15T13:16:12.820Z,19.3
2022-12-15T13:22:20.488Z,15.5
2022-12-15T13:24:22.153Z,22.1
2022-12-15T13:26:23.794Z,19.3
2022-12-15T13:28:28.151Z,19.5
2022-12-15T13:30:29.930Z,12.9
2022-12-15T13:32:31.548Z,14.4
2022-12-15T13:36:37.662Z,11.1
2022-12-15T13:38:39.164Z,12.6
2022-12-15T13:40:43.768Z,14.7
2022-12-15T13:42:53.007Z,16.9
2022-12-15T13:44:48.697Z,23.3
2022-12-15T13:46:51.161Z,21
2022-12-15T13:48:52.921Z,12.9
2022-12-15T13:50:54.480Z,21.8
2022-12-15T13:58:07.045Z,18.9
2022-12-15T14:00:08.713Z,15.4
2022-12-15T14:02:13.135Z,17.2
2022-12-15T14:04:14.717Z,21.1
2022-12-15T14:06:16.366Z,18.6
2022-12-15T14:08:20.721Z,18.5
2022-12-15T14:12:24.065Z,17.7
2022-12-15T14:14:28.383Z,20.3
2022-12-15T14:16:30.083Z,15.5
2022-12-15T14:22:37.714Z,17.9
2022-12-15T14:29:47.140Z,30.1
2022-12-15T14:31:48.890Z,14.6
2022-12-15T14:33:50.795Z,19.2
2022-12-15T14:35:54.810Z,24.6
2022-12-15T14:37:56.476Z,19.2
2022-12-15T14:39:58.111Z,29
2022-12-15T14:42:02.435Z,28.9
2022-12-15T14:44:36.459Z,20.9
2022-12-15T14:46:05.836Z,32.1
2022-12-15T14:48:40.990Z,16.3
2022-12-15T14:52:13.348Z,18.1
2022-12-15T14:54:17.676Z,21.3
2022-12-15T14:56:24.031Z,22.7
2022-12-15T14:58:20.935Z,25.8
2022-12-15T15:00:25.230Z,23.9
2022-12-15T15:04:28.477Z,32
2022-12-15T15:08:35.333Z,30.3
2022-12-15T15:12:40.258Z,20.7
2022-12-15T15:14:41.834Z,18.3
2022-12-15T15:16:43.489Z,23
2022-12-15T15:18:47.737Z,20.5
2022-12-15T15:20:49.332Z,21.3
2022-12-15T15:22:50.897Z,25.1
2022-12-15T15:24:55.138Z,27.2
2022-12-15T15:26:56.874Z,28.4
2022-12-15T15:28:58.313Z,28.6
2022-12-15T15:31:02.563Z,25.4
2022-12-15T15:33:04.106Z,32.6
2022-12-15T15:35:05.646Z,35
2022-12-15T15:37:13.580Z,32.2
2022-12-15T15:39:11.424Z,28.6
2022-12-15T15:41:12.955Z,39.9
2022-12-15T15:46:26.508Z,27.2
2022-12-15T15:48:27.890Z,42.7
2022-12-15T15:54:35.193Z,29.4
2022-12-15T15:56:36.647Z,37.9
2022-12-15T15:58:40.862Z,39.3
2022-12-15T16:00:42.431Z,30.2
2022-12-15T16:02:44.132Z,28.2
2022-12-15T16:04:48.078Z,36.2
2022-12-15T16:06:49.592Z,33.1
2022-12-15T16:08:51.139Z,29.5
2022-12-15T16:10:55.362Z,33.9
2022-12-15T16:12:56.871Z,42.9
2022-12-15T16:14:58.366Z,52.1
2022-12-15T16:17:02.613Z,38.8
2022-12-15T16:21:05.610Z,39.6
2022-12-15T16:30:04.175Z,46
2022-12-15T16:32:05.639Z,41.9
2022-12-15T16:34:07.160Z,40.8
2022-12-15T16:36:11.393Z,50.7
2022-12-15T16:38:12.872Z,64.1
2022-12-15T16:40:14.409Z,64.6
2022-12-15T16:42:18.595Z,48.2
2022-12-15T16:44:20.060Z,42.2
2022-12-15T16:46:21.648Z,57.2
2022-12-15T16:48:25.763Z,49.7
2022-12-15T16:50:27.251Z,57.6
2022-12-15T16:52:28.777Z,53.8
2022-12-15T16:54:32.954Z,55.6
2022-12-15T16:56:34.478Z,52.7
2022-12-15T16:58:36.151Z,54.8
2022-12-15T17:00:40.162Z,61.8
2022-12-15T17:02:41.781Z,49
2022-12-15T17:04:43.120Z,50.1
2022-12-15T17:06:47.324Z,56.5
2022-12-15T17:08:48.844Z,56.2
2022-12-15T17:10:50.305Z,48.5
2022-12-15T17:14:55.959Z,80
2022-12-15T17:16:57.448Z,60.5
2022-12-15T17:19:01.618Z,65.5
2022-12-15T17:21:03.113Z,68.8
2022-12-15T17:25:08.825Z,65.6
2022-12-15T17:27:10.273Z,55.2
2022-12-15T17:31:16.028Z,69.3
2022-12-15T17:33:17.442Z,63.1
2022-12-15T17:35:18.917Z,64.2
2022-12-15T17:42:31.875Z,49.6
2022-12-15T17:46:37.500Z,58.2
2022-12-15T17:48:39.018Z,53.8
2022-12-15T17:50:40.437Z,55.9
2022-12-15T17:52:44.567Z,70.5
2022-12-15T17:54:46.039Z,64.3
2022-12-15T17:56:47.511Z,67.6
2022-12-15T17:58:51.666Z,74.9
2022-12-15T18:02:54.934Z,64.5
2022-12-15T18:04:58.741Z,67.5
2022-12-15T18:07:02.451Z,74.4
2022-12-15T18:09:01.620Z,79.2
2022-12-15T18:16:17.178Z,76.7
2022-12-15T18:18:18.426Z,69.4
2022-12-15T18:20:22.581Z,72.2
2022-12-15T18:24:25.444Z,60.9
2022-12-15T18:34:38.007Z,69.5
2022-12-15T18:36:39.452Z,67.5
2022-12-15T18:38:43.584Z,80.8
2022-12-15T18:40:45.028Z,70.7
2022-12-15T18:42:46.453Z,82.7
2022-12-15T18:44:50.596Z,81.4
2022-12-15T18:46:52.214Z,68.3
2022-12-15T18:48:53.445Z,85.7
2022-12-15T18:54:02.441Z,73
2022-12-15T18:58:05.368Z,82.9
2022-12-15T19:02:11.011Z,100
2022-12-15T19:06:17.341Z,100.2
2022-12-15T19:10:19.380Z,96.1
2022-12-15T19:16:26.498Z,93.7
2022-12-15T19:20:32.054Z,89
2022-12-15T19:22:33.506Z,93.6
2022-12-15T19:24:37.666Z,101.5
2022-12-15T19:26:39.116Z,93.6
2022-12-15T19:28:40.582Z,82.4
2022-12-15T19:30:44.724Z,95.4
2022-12-15T19:40:54.731Z,95
2022-12-15T19:49:05.960Z,91.8
2022-12-15T19:51:07.457Z,111.8
2022-12-15T19:53:08.921Z,103
2022-12-15T19:57:14.551Z,99.5
2022-12-15T19:59:16.008Z,95.7
2022-12-15T20:01:20.319Z,100.6
2022-12-15T20:03:21.752Z,92.5
2022-12-15T20:07:27.311Z,111.6
2022-12-15T20:09:28.803Z,104.1
2022-12-15T20:11:30.282Z,107.6
2022-12-15T20:13:34.847Z,118
2022-12-15T20:23:44.620Z,97.4
2022-12-15T20:25:48.753Z,111.1
2022-12-15T20:27:50.246Z,113.9
2022-12-15T20:29:51.754Z,120.3
2022-12-15T20:31:55.968Z,109.7
2022-12-15T20:33:57.424Z,115.1
2022-12-15T20:35:58.913Z,98.9
2022-12-15T20:44:57.339Z,105.9
2022-12-15T20:46:58.876Z,102
2022-12-15T20:49:00.363Z,129.4
2022-12-15T20:51:08.989Z,109.7
2022-12-15T20:55:07.512Z,113.1
2022-12-15T20:57:11.700Z,95.6
2022-12-15T20:59:13.200Z,104.1
2022-12-15T21:01:14.767Z,111.7
2022-12-15T21:03:19.063Z,128.5
2022-12-15T21:05:20.429Z,120.5
2022-12-15T21:07:21.902Z,117.9
2022-12-15T21:09:26.097Z,114.6
2022-12-15T21:13:29.524Z,116.5
2022-12-15T21:15:33.380Z,126.8
2022-12-15T21:17:37.428Z,137.5
2022-12-15T21:19:36.376Z,103.3
2022-12-15T21:21:40.595Z,123.3
2022-12-15T21:23:42.955Z,125.6
2022-12-15T21:25:43.662Z,117.6
2022-12-15T21:27:47.880Z,125.5
2022-12-15T21:29:52.539Z,126.3
2022-12-15T21:31:50.975Z,129.9
2022-12-15T21:36:59.627Z,113.8
2022-12-15T21:39:01.132Z,111.7
2022-12-15T21:41:02.657Z,111.3
2022-12-15T21:50:16.275Z,122
2022-12-15T21:52:20.551Z,119
2022-12-15T21:54:27.384Z,123
2022-12-15T21:56:23.597Z,118.4
2022-12-15T22:01:37.274Z,120.8
2022-12-15T22:03:38.627Z,113.2
2022-12-15T22:05:40.187Z,120.8
2022-12-15T22:14:52.776Z,122.9
2022-12-15T22:16:57.029Z,102.8
2022-12-15T22:18:58.625Z,105.8
2022-12-15T22:21:00.123Z,119.1
2022-12-15T22:23:04.381Z,108
2022-12-15T22:25:05.952Z,103.9
2022-12-15T22:27:07.519Z,106
2022-12-15T22:32:20.468Z,93.8
2022-12-15T22:34:22.027Z,94.4
2022-12-15T22:36:23.599Z,91.8
2022-12-15T22:38:27.884Z,94
2022-12-15T22:42:31.028Z,99.9
2022-12-15T22:44:35.288Z,87.2
2022-12-15T22:46:36.947Z,71.1
2022-12-15T22:48:38.480Z,84.4
2022-12-15T22:52:44.314Z,76
2022-12-15T22:56:50.169Z,79.9
2022-12-15T22:58:51.735Z,74.6
2022-12-15T23:00:53.301Z,67.8
2022-12-15T23:10:05.608Z,66.6
2022-12-15T23:18:17.239Z,60.7
2022-12-15T23:26:26.147Z,68.9
2022-12-15T23:34:35.017Z,77.3
2022-12-15T23:36:39.240Z,64.9
2022-12-15T23:38:40.798Z,62.5
2022-12-15T23:42:46.545Z,55.5
2022-12-15T23:44:48.148Z,79.8
2022-12-15T23:46:49.673Z,61.1
2022-12-15T23:48:53.837Z,71.2
2022-12-15T23:50:55.355Z,61.7
2022-12-15T23:52:56.885Z,62.9
2022-12-15T23:55:01.075Z,69.9
2022-12-15T23:57:02.619Z,60.1
2022-12-15T23:59:04.135Z,62.4
